Clinchburg, Virginia
Current Conditions -  °F | °C
As of 5:15 PM on Tuesday 25 Nov 2014 (Local Time) from KVJI Reporting Station
Clear Clear  
Wind Chill: 10°   Ceiling: Unl
Heat Index: 10°   Visibility: 10mi
Dew Point: -3°   Wind: 3mph
Humidity: 39%   Direction: 250°WSW
Pressure: 30.05"   Gusts: NA
Location:  36.7675°N, 81.854°W
Report Text: KVJI 252215Z AUTO 25003KT 10SM CLR 10/M03 A3005 RMK AO2 T01021033
Loading
Personal Weather Stations






























Interactive Weather Map New forecast layout! Learn more

10-Day Weather Forecast

Advertisements
Track Severe Weather on mobile